53分钟前
罗盘
风向 的 风向 160° 凯夫拉维克国际机场 10/28
风: 5 千吨, 2 beaufort
0 500 1.500 3.000 5.000 8.000 10.000
FEW 3.000 ft
OVC 6.000 ft
METAR BIHU 301200Z 16005KT 9999 FEW030 OVC060 M04/M07 Q1001

METAR定义 | 嵌入

24小时趋势

航班类别VFRLIFR
温度-4 °C-5 °C
风速6 千吨0 千吨
能见度10 公里+0 米

更多历史数据

下载我们的安卓应用程序

从你的主屏幕上轻松地访问你的航空天气。
只需一次付费,您就可以获得无广告的体验。

您会帮助我们保持Metar-Taf.com正常运行吗?
您的贡献有助于网站的进一步开发并支付费用。

没有更多广告

您是捐款5美元还是更多?然后,我们将永远不会再向您展示广告,这是我们永恒的感谢!
捐赠前先登录

METAR 凯夫拉维克国际机场

凯夫拉维克国际机场是Reykjavík,冰岛中的大型机场。 机场有{a,plural,=1{一条跑道} other{#跑道}}: 1/19 和 10/28

凯夫拉维克国际机场最近未发布观察结果。相反,我们向您显示327 km的报告Húsavík Airport。 该报告是针对2021年11月30日 12:00, 当地时间进行的。

机场观察

风来自南南东 (160°)方向,速度为5 千吨。

可见度为10 公里 或者更多。

有几云在3.000 ft的高度 和 乌云密布在6.000 ft的高度。 破损或更高的上限为6.000 ft。

温度为-4 °C,阵风为-10 °C。 露点为-7 °C,相对湿度为80%。 海平面上的气压为1001 压力 (QNH)。

白天

今天,太阳从10:44升起,在15:54降落。 这适用于凯夫拉维克国际机场,世界夏令时可能有所不同。 当地时间与世界标准时间之间的时差为+0 小时。 当前,没有夏令时有效。

公司介绍

在这个机场,你可以找到飞行学校。 本场上唯一已知的公司是Keilir Aviation Academy。

体会

到Vliegles.nl去找飞行课程,跳伞和其他飞行体验。 浏览页面,了解凯夫拉维克国际机场附近所有可用的活动。 你也可以使用搜索功能来寻找你所在地附近的特定飞行课程、跳伞或其他飞行体验。

您是否要在网站上凯夫拉维克国际机场飞行的天气? 阅读更多   自由!